Latest Weather Observations for Badgerys Creek

IDN60801

Issued at 9:35 am EDT Thursday 23 October 2014 (issued every 30 minutes, with the page automatically refreshed every 10 minutes)

About weather observations | Map of weather stations | Latest weather observations for NSW | Other Formats
Station Details ID: 067108 Name: BADGERYS CREEK AWS Lat: -33.90 Lon: 150.73 Height: 81.2 m
Data from the previous 72 hours. | See also: Recent months at Badgerys Creek
Date/Time
EDT
Temp
°C
App
Temp
°C
Dew
Point
Rel
Hum
%
Delta-T
°C
Wind Press
QNH
hPa
Press
MSL
hPa
Rain
since 9 am
mm
Dir
 
Spd
km/h
Gust
km/h
Spd
kts
Gust
kts
23/09:30am 20.5 21.4 15.1 71 3.2 N 4 7 2 4 1018.2 1018.0 0.0
23/09:00am 18.7 19.4 14.6 77 2.4 NNW 4 7 2 4 1018.3 1018.1 0.0
23/08:30am 17.1 17.7 14.2 83 1.7 NW 4 7 2 4 1018.3 1018.1 0.0
23/08:00am 15.3 16.6 14.2 93 0.6 CALM 0 4 0 2 1018.4 1018.2 0.0
23/07:30am 13.6 14.0 13.6 100 0.0 SSW 4 6 2 3 1018.4 1018.2 0.0
23/07:00am 12.0 11.9 12.0 100 0.0 WSW 4 4 2 2 1018.3 1018.1 0.0
23/06:30am 10.7 10.5 10.5 99 0.1 WSW 2 6 1 3 1018.2 1018.0 0.0
23/06:00am 11.7 12.2 11.5 99 0.1 WSW 0 0 0 0 1017.8 1017.6 0.0
23/05:30am 11.3 11.7 11.1 99 0.1 CALM 0 4 0 2 1017.7 1017.5 0.0
23/05:00am 11.8 11.2 11.6 99 0.1 WSW 6 6 3 3 1017.9 1017.7 0.0
23/04:30am 12.0 11.8 11.8 99 0.1 WSW 4 4 2 2 1017.8 1017.6 0.0
23/04:00am 12.3 11.8 12.1 99 0.1 WSW 6 6 3 3 1017.8 1017.6 0.0
23/03:30am 12.5 12.5 12.3 99 0.1 WSW 4 6 2 3 1018.0 1017.8 0.0
23/03:00am 12.4 11.9 12.2 99 0.1 WSW 6 7 3 4 1018.3 1018.1 0.0
23/02:30am 12.5 12.0 12.2 98 0.2 WSW 6 6 3 3 1018.5 1018.3 0.0
23/02:00am 12.7 12.2 12.2 97 0.3 WSW 6 6 3 3 1018.8 1018.6 0.0
23/01:30am 13.1 13.2 12.6 97 0.3 WSW 4 6 2 3 1019.2 1019.0 0.0
23/01:00am 12.8 12.3 12.0 95 0.4 SSW 6 6 3 3 1019.5 1019.3 0.0
23/12:30am 12.9 12.8 12.0 94 0.5 SSW 4 6 2 3 1019.8 1019.6 0.0
23/12:00am 13.4 13.4 12.5 94 0.5 ESE 4 4 2 2 1020.1 1019.9 0.0
 
Date/Time
EDT
Temp
°C
App
Temp
°C
Dew
Point
Rel
Hum
%
Delta-T
°C
Wind Press
QNH
hPa
Press
MSL
hPa
Rain
since 9 am
mm
Dir
 
Spd
km/h
Gust
km/h
Spd
kts
Gust
kts
22/11:30pm 13.7 14.1 12.4 92 0.7 ESE 2 4 1 2 1020.2 1020.0 0.0
22/11:00pm 14.3 15.0 12.2 87 1.1 CALM 0 0 0 0 1020.3 1020.1 0.0
22/10:30pm 14.7 15.5 12.4 86 1.3 CALM 0 0 0 0 1020.5 1020.3 0.0
22/10:00pm 15.4 16.2 12.5 83 1.6 CALM 0 0 0 0 1020.5 1020.3 0.0
22/09:30pm 16.1 16.9 12.5 79 2.0 CALM 0 0 0 0 1020.4 1020.2 0.0
22/09:00pm 16.6 17.4 12.6 77 2.2 CALM 0 0 0 0 1020.4 1020.2 0.0
22/08:30pm 17.6 17.6 12.5 72 2.8 E 4 6 2 3 1020.1 1019.9 0.0
22/08:00pm 18.4 17.5 12.6 69 3.2 E 9 11 5 6 1019.9 1019.7 0.0
22/07:30pm 19.4 18.5 12.7 65 3.8 E 9 13 5 7 1019.5 1019.3 0.0
22/07:00pm 20.9 19.7 12.8 60 4.6 E 11 15 6 8 1019.3 1019.1 0.0
22/06:30pm 22.4 21.2 12.9 55 5.5 E 11 19 6 10 1019.2 1019.0 0.0
22/06:00pm 23.8 22.4 10.8 44 7.2 NNE 9 13 5 7 1019.2 1019.0 0.0
22/05:30pm 23.9 22.2 11.3 45 7.1 N 11 19 6 10 1019.3 1019.1 0.0
22/05:00pm 24.1 22.3 10.7 43 7.5 NNE 11 19 6 10 1019.5 1019.3 0.0
22/04:30pm 24.3 23.2 11.9 45 7.1 NNE 9 15 5 8 1019.7 1019.5 0.0
22/04:00pm 24.1 22.6 11.8 46 7.0 NE 11 20 6 11 1020.1 1019.9 0.0
22/03:30pm 23.8 22.2 11.5 46 6.9 NNE 11 20 6 11 1020.6 1020.4 0.0
22/03:00pm 23.2 21.4 10.9 46 6.8 N 11 20 6 11 1021.2 1021.0 0.0
22/02:30pm 22.5 19.4 10.3 46 6.7 NE 17 22 9 12 1021.7 1021.5 0.0
22/02:00pm 22.2 19.1 10.4 47 6.5 NE 17 24 9 13 1022.3 1022.1 0.0
22/01:30pm 21.8 19.1 10.3 48 6.3 NE 15 24 8 13 1023.0 1022.9 0.0
22/01:00pm 21.4 18.3 10.3 49 6.0 NE 17 24 9 13 1023.6 1023.5 0.0
22/12:30pm 20.6 17.4 9.8 50 5.8 NNE 17 26 9 14 1024.2 1024.1 0.0
22/12:00pm 19.9 16.5 9.2 50 5.6 NNE 17 30 9 16 1025.0 1024.9 0.0
22/11:30am 19.8 15.7 10.0 53 5.3 NNE 22 32 12 17 1025.6 1025.5 0.0
22/11:00am 18.8 14.5 9.3 54 5.0 NNE 22 30 12 16 1026.0 1025.9 0.0
22/10:30am 18.9 14.6 9.4 54 5.0 N 22 32 12 17 1026.3 1026.2 0.0
22/10:00am 18.3 14.1 8.3 52 5.1 N 20 26 11 14 1026.7 1026.6 0.0
22/09:30am 17.5 14.3 8.6 56 4.6 N 15 20 8 11 1026.9 1026.8 0.0
22/09:00am 17.2 14.4 8.6 57 4.4 NNW 13 19 7 10 1026.9 1026.8 0.0
22/08:30am 16.3 14.5 9.5 64 3.5 N 9 15 5 8 1027.3 1027.2 0.0
22/08:00am 15.2 14.2 10.2 72 2.6 N 6 9 3 5 1027.4 1027.3 0.0
22/07:30am 14.1 14.3 10.7 80 1.8 CALM 0 2 0 1 1027.3 1027.2 0.0
22/07:00am 13.0 13.4 11.1 88 1.0 CALM 0 0 0 0 1027.4 1027.3 0.0
22/06:30am 13.1 13.4 10.8 86 1.2 CALM 0 2 0 1 1027.4 1027.3 0.0
22/06:00am 13.1 13.4 10.8 86 1.2 CALM 0 2 0 1 1027.3 1027.2 0.0
22/05:30am 13.3 12.8 10.8 85 1.3 NE 4 6 2 3 1027.2 1027.1 0.0
22/05:00am 13.2 12.7 10.9 86 1.2 NNE 4 6 2 3 1027.2 1027.1 0.0
22/04:30am 13.3 12.5 11.0 86 1.2 NNE 6 6 3 3 1027.5 1027.4 0.0
22/04:00am 13.4 13.8 11.3 87 1.1 CALM 0 0 0 0 1027.6 1027.5 0.0
22/03:30am 13.3 13.7 11.4 88 1.0 CALM 0 0 0 0 1028.1 1028.0 0.0
22/03:00am 13.4 13.7 10.9 85 1.3 CALM 0 0 0 0 1028.3 1028.2 0.0
22/02:30am 13.4 13.7 10.8 84 1.4 CALM 0 2 0 1 1028.7 1028.6 0.0
22/02:00am 13.5 13.1 11.0 85 1.3 NE 4 6 2 3 1029.0 1028.9 0.0
22/01:30am 13.8 14.2 11.1 84 1.4 CALM 0 2 0 1 1029.4 1029.3 0.0
22/01:00am 13.7 13.2 10.9 83 1.5 NNE 4 7 2 4 1030.0 1029.9 0.0
22/12:30am 14.0 14.3 10.8 81 1.7 CALM 0 0 0 0 1030.6 1030.4 0.0
22/12:00am 14.1 14.5 11.4 84 1.4 CALM 0 0 0 0 1030.9 1030.7 0.0
 
Date/Time
EDT
Temp
°C
App
Temp
°C
Dew
Point
Rel
Hum
%
Delta-T
°C
Wind Press
QNH
hPa
Press
MSL
hPa
Rain
since 9 am
mm
Dir
 
Spd
km/h
Gust
km/h
Spd
kts
Gust
kts
21/11:30pm 14.4 14.5 10.0 75 2.3 CALM 0 0 0 0 1031.1 1030.9 0.0
21/11:00pm 14.4 14.5 10.0 75 2.3 CALM 0 0 0 0 1031.2 1031.0 0.0
21/10:30pm 14.6 14.3 10.2 75 2.3 NNE 2 4 1 2 1031.4 1031.2 0.0
21/10:00pm 14.7 14.0 10.1 74 2.4 NNE 4 7 2 4 1031.3 1031.1 0.0
21/09:30pm 14.9 13.3 10.1 73 2.5 NE 9 13 5 7 1031.3 1031.1 0.0
21/09:00pm 15.2 13.1 9.8 70 2.8 ENE 11 15 6 8 1031.1 1030.9 0.0
21/08:30pm 15.4 13.9 9.3 67 3.2 NE 7 11 4 6 1031.0 1030.8 0.0
21/08:00pm 15.4 13.6 9.3 67 3.1 NE 9 13 5 7 1030.6 1030.4 0.0
21/07:30pm 15.6 13.8 9.3 66 3.3 ENE 9 13 5 7 1030.3 1030.1 0.0
21/07:00pm 15.9 13.7 9.3 65 3.4 ENE 11 17 6 9 1030.3 1030.1 0.0
21/06:30pm 16.2 13.9 8.9 62 3.8 ENE 11 17 6 9 1030.0 1029.9 0.0
21/06:00pm 16.6 14.6 8.8 60 4.0 E 9 13 5 7 1029.9 1029.8 0.0
21/05:30pm 16.9 14.5 8.8 59 4.2 E 11 15 6 8 1029.8 1029.7 0.0
21/05:00pm 17.0 14.6 8.7 58 4.3 ENE 11 17 6 9 1029.9 1029.8 0.0
21/04:30pm 17.1 15.0 8.3 56 4.5 ENE 9 15 5 8 1029.8 1029.7 0.0
21/04:00pm 17.1 15.5 8.8 58 4.3 ENE 7 13 4 7 1029.9 1029.8 0.0
21/03:30pm 17.1 15.1 8.5 57 4.4 ENE 9 13 5 7 1030.3 1030.1 0.0
21/03:00pm 16.9 14.9 8.6 58 4.2 E 9 15 5 8 1030.6 1030.4 0.0
21/02:30pm 16.8 15.1 8.5 58 4.3 NE 7 9 4 5 1030.9 1030.7 0.0
21/02:00pm 16.7 14.9 8.1 57 4.3 ENE 7 11 4 6 1031.4 1031.2 0.0
21/01:30pm 16.5 15.1 9.4 63 3.7 ENE 7 9 4 5 1031.9 1031.7 0.0
21/01:00pm 16.4 14.9 9.3 63 3.7 ENE 7 11 4 6 1032.2 1032.0 0.0
21/12:30pm 16.2 14.9 10.1 67 3.2 NE 7 9 4 5 1032.4 1032.2 0.0
21/12:00pm 16.2 15.0 9.6 65 3.4 ENE 6 9 3 5 1032.7 1032.5 0.0
21/11:30am 16.2 15.2 8.9 62 3.8 E 4 7 2 4 1032.8 1032.6 0.0
21/11:00am 16.6 15.4 9.5 63 3.7 E 6 11 3 6 1033.0 1032.8 0.0
21/10:30am 16.3 15.5 9.7 65 3.5 S 4 7 2 4 1033.1 1032.9 0.0
21/10:00am 15.7 15.2 10.7 72 2.6 S 4 9 2 5 1033.2 1033.0 0.0
21/09:30am 15.0 14.6 12.3 84 1.5 SW 6 9 3 5 1033.1 1032.9 0.0
21/09:00am 14.6 14.0 12.3 86 1.2 SW 7 9 4 5 1032.9 1032.7 1.4
21/08:30am 14.1 13.6 12.5 90 0.9 WSW 7 9 4 5 1032.7 1032.5 1.4
21/08:00am 13.7 12.7 12.3 91 0.8 WSW 9 11 5 6 1032.4 1032.2 1.4
21/07:30am 13.3 12.9 13.0 98 0.2 SW 7 9 4 5 1032.1 1031.9 1.4
21/07:00am 13.1 12.7 12.9 99 0.1 SW 7 9 4 5 1031.8 1031.6 1.4
21/06:30am 13.0 12.7 12.8 99 0.1 SW 6 9 3 5 1031.7 1031.5 1.4
21/06:00am 12.9 12.6 12.7 99 0.1 SW 6 7 3 4 1031.2 1031.0 1.4
21/05:30am 12.8 12.9 12.6 99 0.1 SW 4 6 2 3 1031.2 1031.0 1.4
21/05:00am 12.9 13.0 12.7 99 0.1 SSE 4 6 2 3 1031.2 1031.0 1.4
21/04:30am 12.8 13.6 12.6 99 0.1 CALM 0 4 0 2 1031.1 1030.9 1.4
21/04:00am 12.8 13.6 12.6 99 0.1 CALM 0 2 0 1 1031.3 1031.1 1.4
21/03:30am 12.8 12.5 12.6 99 0.1 SE 6 9 3 5 1031.3 1031.1 1.4
21/03:00am 12.8 12.5 12.6 99 0.1 SE 6 11 3 6 1031.5 1031.3 1.4
21/02:30am 13.0 13.1 12.8 99 0.1 SW 4 6 2 3 1031.5 1031.3 1.4
21/02:00am 13.0 13.1 12.8 99 0.1 SW 4 4 2 2 1031.6 1031.4 1.2
21/01:30am 13.0 12.7 12.8 99 0.1 SW 6 7 3 4 1031.8 1031.6 0.8
21/01:00am 13.1 12.9 12.9 99 0.1 SW 6 7 3 4 1031.9 1031.7 0.4
21/12:30am 13.1 13.2 12.6 97 0.3 SW 4 6 2 3 1032.1 1031.9 0.4
21/12:00am 13.2 12.8 12.3 94 0.5 NE 6 11 3 6 1032.2 1032.0 0.0
 
Date/Time
EDT
Temp
°C
App
Temp
°C
Dew
Point
Rel
Hum
%
Delta-T
°C
Wind Press
QNH
hPa
Press
MSL
hPa
Rain
since 9 am
mm
Dir
 
Spd
km/h
Gust
km/h
Spd
kts
Gust
kts
20/11:30pm 13.4 12.7 12.0 91 0.8 NE 7 9 4 5 1032.3 1032.1 0.0
20/11:00pm 13.7 12.9 11.8 88 1.0 NE 7 9 4 5 1032.4 1032.2 0.0
20/10:30pm 14.7 14.2 9.5 71 2.7 SE 2 4 1 2 1032.3 1032.1 0.0
20/10:00pm 14.9 14.0 9.3 69 2.9 ESE 4 7 2 4 1032.2 1032.0 0.0
20/09:30pm 14.9 13.6 9.1 68 3.0 S 6 9 3 5 1032.1 1031.9 0.0
20/09:00pm 15.0 13.6 8.9 67 3.1 SSW 6 9 3 5 1031.9 1031.7 0.0
20/08:30pm 15.1 13.6 9.2 68 3.0 SW 7 9 4 5 1031.6 1031.4 0.0
20/08:00pm 15.4 14.0 8.9 65 3.3 SSW 6 9 3 5 1031.3 1031.1 0.0
20/07:30pm 15.5 14.0 9.2 66 3.3 SSE 7 13 4 7 1031.0 1030.8 0.0
20/07:00pm 15.7 13.2 9.6 67 3.2 SSE 13 20 7 11 1030.9 1030.7 0.0
20/06:30pm 16.1 13.2 9.8 66 3.3 S 15 20 8 11 1030.5 1030.3 0.0
20/06:00pm 16.2 13.7 9.8 66 3.3 SSE 13 22 7 12 1030.4 1030.2 0.0
20/05:30pm 16.6 14.6 10.0 65 3.5 SSE 11 17 6 9 1030.1 1030.0 0.0
20/05:00pm 16.6 13.5 10.2 66 3.4 SSE 17 26 9 14 1030.0 1029.9 0.0
20/04:30pm 16.7 14.0 10.3 66 3.4 SE 15 24 8 13 1029.9 1029.8 0.0
20/04:00pm 16.9 14.0 11.0 68 3.2 SSE 17 28 9 15 1029.8 1029.7 0.0
20/03:30pm 17.1 15.0 11.2 68 3.2 SE 13 20 7 11 1029.8 1029.7 0.0
20/03:00pm 17.0 14.2 11.3 69 3.1 SE 17 28 9 15 1029.8 1029.7 0.0
20/02:30pm 16.8 14.4 11.3 70 3.0 SSE 15 22 8 12 1030.0 1029.9 0.0
20/02:00pm 17.9 15.6 11.7 67 3.4 SSE 15 22 8 12 1030.1 1030.0 0.0
20/01:30pm 18.0 15.3 11.6 66 3.5 S 17 24 9 13 1030.3 1030.1 0.0
20/01:00pm 18.3 15.7 10.7 61 4.1 S 15 20 8 11 1030.3 1030.1 0.0
20/12:30pm 18.1 15.2 11.0 63 3.9 S 17 26 9 14 1030.6 1030.4 0.0
20/12:00pm 17.8 14.9 10.9 64 3.7 S 17 30 9 16 1030.9 1030.7 0.0
20/11:30am 17.7 14.3 10.6 63 3.8 S 19 32 10 17 1030.9 1030.7 0.0
20/11:00am 17.7 14.7 10.8 64 3.7 S 17 28 9 15 1030.7 1030.5 0.0
20/10:30am 17.5 13.5 10.6 64 3.7 S 22 32 12 17 1030.7 1030.5 0.0
20/10:00am 17.6 15.1 11.2 66 3.5 S 15 24 8 13 1030.4 1030.2 0.0

Other Formats:

Comma delimited format used in spreadsheet applications
http://www.bom.gov.au/fwo/IDN60801/IDN60801.94752.axf

JavaScript Object Notation format (JSON) in row-major order
http://www.bom.gov.au/fwo/IDN60801/IDN60801.94752.json